createdAt,value
2023-05-10T00:00:48.800Z,100838.91
2023-05-10T00:03:16.018Z,100842.38
2023-05-10T00:05:43.356Z,100833.25
2023-05-10T00:08:10.463Z,100836.00
2023-05-10T00:10:37.574Z,100831.81
2023-05-10T00:13:05.227Z,100823.69
2023-05-10T00:15:32.410Z,100829.09
2023-05-10T00:17:59.708Z,100827.72
2023-05-10T00:20:27.038Z,100827.34
2023-05-10T00:22:54.538Z,100824.03
2023-05-10T00:25:21.756Z,100822.81
2023-05-10T00:27:48.973Z,100825.28
2023-05-10T00:30:16.669Z,100827.03
2023-05-10T00:32:43.968Z,100823.19
2023-05-10T00:35:11.145Z,100815.31
2023-05-10T00:37:38.307Z,100819.91
2023-05-10T00:40:06.852Z,100820.28
2023-05-10T00:42:34.043Z,100821.19
2023-05-10T00:45:01.230Z,100819.06
2023-05-10T00:47:28.991Z,100817.09
2023-05-10T00:49:56.323Z,100819.34
2023-05-10T00:52:24.001Z,100819.28
2023-05-10T00:54:53.292Z,100827.34
2023-05-10T00:57:20.667Z,100817.66
2023-05-10T00:59:48.831Z,100816.44
2023-05-10T01:02:16.175Z,100813.16
2023-05-10T01:04:44.532Z,100817.03
2023-05-10T01:07:11.796Z,100817.06
2023-05-10T01:09:39.295Z,100813.53
2023-05-10T01:12:07.013Z,100809.50
2023-05-10T01:14:34.989Z,100808.44
2023-05-10T01:17:02.656Z,100807.28
2023-05-10T01:19:31.940Z,100803.09
2023-05-10T01:22:12.183Z,100798.53
2023-05-10T01:25:21.601Z,100801.53
2023-05-10T01:28:09.795Z,100805.69
2023-05-10T01:31:01.745Z,100804.16
2023-05-10T01:33:53.236Z,100798.81
2023-05-10T01:36:24.738Z,100792.06
2023-05-10T01:38:59.118Z,100788.34
2023-05-10T01:41:42.390Z,100788.13
2023-05-10T01:44:21.517Z,100785.81
2023-05-10T01:47:17.675Z,100781.97
2023-05-10T01:49:51.367Z,100783.41
2023-05-10T01:52:27.691Z,100783.63
2023-05-10T01:54:59.752Z,100775.91
2023-05-10T01:57:33.507Z,100777.13
2023-05-10T02:00:03.604Z,100774.31
2023-05-10T02:02:34.189Z,100776.75
2023-05-10T02:05:01.705Z,100772.91
2023-05-10T02:07:29.714Z,100775.59
2023-05-10T02:09:58.203Z,100770.78
2023-05-10T02:12:26.508Z,100768.84
2023-05-10T02:14:54.477Z,100767.50
2023-05-10T02:17:23.934Z,100766.09
2023-05-10T02:19:54.135Z,100764.41
2023-05-10T02:22:23.245Z,100767.03
2023-05-10T02:24:51.655Z,100762.13
2023-05-10T02:27:20.852Z,100770.13
2023-05-10T02:29:49.246Z,100766.34
2023-05-10T02:32:18.107Z,100764.22
2023-05-10T02:34:47.401Z,100768.69
2023-05-10T02:37:20.336Z,100768.75
2023-05-10T02:39:51.474Z,100758.78
2023-05-10T02:42:27.304Z,100763.41
2023-05-10T02:45:00.314Z,100753.34
2023-05-10T02:47:29.694Z,100752.81
2023-05-10T02:49:56.965Z,100754.53
2023-05-10T02:52:30.885Z,100761.13
2023-05-10T02:55:03.547Z,100767.75
2023-05-10T02:57:34.829Z,100763.94
2023-05-10T03:00:03.444Z,100758.97
2023-05-10T03:02:30.596Z,100765.34
2023-05-10T03:04:57.912Z,100764.06
2023-05-10T03:07:25.307Z,100762.06
2023-05-10T03:09:53.122Z,100759.41
2023-05-10T03:12:38.515Z,100764.00
2023-05-10T03:15:17.560Z,100756.53
2023-05-10T03:17:44.668Z,100759.81
2023-05-10T03:20:13.706Z,100764.47
2023-05-10T03:22:50.753Z,100768.16
2023-05-10T03:25:21.774Z,100756.47
2023-05-10T03:27:49.959Z,100758.78
2023-05-10T03:30:18.685Z,100765.22
2023-05-10T03:32:46.207Z,100768.97
2023-05-10T03:35:13.781Z,100772.56
2023-05-10T03:37:41.108Z,100770.53
2023-05-10T03:40:09.410Z,100781.34
2023-05-10T03:42:36.779Z,100778.91
2023-05-10T03:45:04.531Z,100774.06
2023-05-10T03:47:31.898Z,100769.91
2023-05-10T03:49:59.266Z,100767.41
2023-05-10T03:52:26.597Z,100767.50
2023-05-10T03:54:54.226Z,100772.84
2023-05-10T03:57:35.137Z,100774.06
2023-05-10T04:00:02.821Z,100769.59
2023-05-10T04:02:30.083Z,100767.78
2023-05-10T04:04:57.572Z,100765.69
2023-05-10T04:07:25.594Z,100766.25
2023-05-10T04:09:53.644Z,100764.28
2023-05-10T04:12:21.236Z,100772.81
2023-05-10T04:14:48.910Z,100780.13
2023-05-10T04:17:16.663Z,100777.56
2023-05-10T04:19:44.425Z,100772.13
2023-05-10T04:22:12.021Z,100779.53
2023-05-10T04:24:39.585Z,100778.97
2023-05-10T04:27:07.080Z,100780.56
2023-05-10T04:29:34.706Z,100776.91
2023-05-10T04:32:03.291Z,100771.88
2023-05-10T04:34:30.493Z,100773.63
2023-05-10T04:36:57.625Z,100770.53
2023-05-10T04:39:24.791Z,100772.78
2023-05-10T04:41:51.944Z,100774.81
2023-05-10T04:44:19.050Z,100771.06
2023-05-10T04:46:46.232Z,100773.28
2023-05-10T04:49:13.472Z,100772.38
2023-05-10T04:51:40.666Z,100766.44
2023-05-10T04:54:07.805Z,100766.41
2023-05-10T04:56:34.913Z,100765.72
2023-05-10T04:59:02.032Z,100768.16
2023-05-10T05:01:29.365Z,100761.91
2023-05-10T05:03:57.266Z,100761.38
2023-05-10T05:06:25.092Z,100766.53
2023-05-10T05:08:53.021Z,100761.41
2023-05-10T05:11:20.725Z,100753.41
2023-05-10T05:13:48.517Z,100759.94
2023-05-10T05:16:16.042Z,100753.94
2023-05-10T05:18:43.188Z,100769.50
2023-05-10T05:21:20.867Z,100757.78
2023-05-10T05:23:48.356Z,100756.69
2023-05-10T05:26:15.478Z,100760.25
2023-05-10T05:28:42.930Z,100767.31
2023-05-10T05:31:10.331Z,100760.03
2023-05-10T05:33:37.733Z,100755.47
2023-05-10T05:36:06.321Z,100761.41
2023-05-10T05:38:33.631Z,100758.56
2023-05-10T05:41:01.148Z,100761.06
2023-05-10T05:43:28.459Z,100760.50
2023-05-10T05:45:56.322Z,100750.69
2023-05-10T05:48:23.806Z,100760.00
2023-05-10T05:50:51.078Z,100761.88
2023-05-10T05:53:18.500Z,100769.38
2023-05-10T05:55:59.523Z,100771.06
2023-05-10T05:58:27.281Z,100764.97
2023-05-10T06:00:54.899Z,100762.81
2023-05-10T06:03:22.851Z,100770.09
2023-05-10T06:05:50.455Z,100775.19
2023-05-10T06:08:17.805Z,100766.59
2023-05-10T06:10:45.162Z,100770.41
2023-05-10T06:13:13.090Z,100778.75
2023-05-10T06:15:40.459Z,100778.72
2023-05-10T06:18:07.789Z,100783.59
2023-05-10T06:20:35.294Z,100781.19
2023-05-10T06:23:02.553Z,100777.69
2023-05-10T06:25:30.313Z,100785.16
2023-05-10T06:27:57.749Z,100787.75
2023-05-10T06:30:26.132Z,100786.66
2023-05-10T06:32:53.543Z,100787.31
2023-05-10T06:35:20.954Z,100791.78
2023-05-10T06:37:48.280Z,100792.66
2023-05-10T06:40:15.778Z,100793.16
2023-05-10T06:42:43.976Z,100791.53
2023-05-10T06:45:11.648Z,100788.03
2023-05-10T06:47:39.401Z,100787.81
2023-05-10T06:50:08.626Z,100796.88
2023-05-10T06:52:36.056Z,100785.66
2023-05-10T06:55:04.285Z,100792.63
2023-05-10T06:57:32.309Z,100789.25
2023-05-10T07:00:00.489Z,100795.69
2023-05-10T07:02:28.261Z,100785.19
2023-05-10T07:04:55.691Z,100786.34
2023-05-10T07:07:23.557Z,100783.13
2023-05-10T07:09:50.886Z,100784.25
2023-05-10T07:12:18.595Z,100789.00
2023-05-10T07:14:45.964Z,100794.19
2023-05-10T07:17:13.323Z,100782.38
2023-05-10T07:19:41.107Z,100795.88
2023-05-10T07:22:08.531Z,100798.41
2023-05-10T07:24:36.196Z,100801.78
2023-05-10T07:27:04.328Z,100797.94
2023-05-10T07:29:31.920Z,100797.13
2023-05-10T07:31:59.378Z,100798.53
2023-05-10T07:34:26.882Z,100795.38
2023-05-10T07:36:54.245Z,100798.69
2023-05-10T07:39:27.454Z,100806.13
2023-05-10T07:41:56.609Z,100796.38
2023-05-10T07:44:24.639Z,100793.22
2023-05-10T07:46:52.229Z,100806.28
2023-05-10T07:49:19.682Z,100810.09
2023-05-10T07:51:47.003Z,100799.72
2023-05-10T07:54:15.054Z,100811.69
2023-05-10T07:56:42.416Z,100798.69
2023-05-10T07:59:11.355Z,100796.34
2023-05-10T08:01:39.973Z,100813.66
2023-05-10T08:04:07.395Z,100801.19
2023-05-10T08:06:34.834Z,100811.50
2023-05-10T08:09:02.086Z,100808.50
2023-05-10T08:11:29.603Z,100803.97
2023-05-10T08:13:57.307Z,100806.63
2023-05-10T08:16:24.778Z,100804.13
2023-05-10T08:18:52.166Z,100816.63
2023-05-10T08:21:20.952Z,100811.75
2023-05-10T08:23:48.378Z,100802.22
2023-05-10T08:26:15.697Z,100817.16
2023-05-10T08:28:43.011Z,100799.94
2023-05-10T08:31:10.535Z,100798.69
2023-05-10T08:33:37.906Z,100788.50
2023-05-10T08:36:05.346Z,100800.72
2023-05-10T08:38:33.114Z,100798.78
2023-05-10T08:41:03.189Z,100796.44
2023-05-10T08:43:31.143Z,100801.47
2023-05-10T08:46:02.177Z,100817.28
2023-05-10T08:48:31.201Z,100804.38
2023-05-10T08:51:01.136Z,100798.44
2023-05-10T08:53:31.477Z,100801.63
2023-05-10T08:55:59.013Z,100792.91
2023-05-10T08:58:26.423Z,100794.63
2023-05-10T09:00:54.150Z,100791.09
2023-05-10T09:03:21.644Z,100792.97
2023-05-10T09:05:50.025Z,100798.13
2023-05-10T09:08:18.223Z,100799.13
2023-05-10T09:10:45.818Z,100795.41
2023-05-10T09:13:15.642Z,100784.47
2023-05-10T09:15:45.524Z,100785.78
2023-05-10T09:18:13.613Z,100797.88
2023-05-10T09:20:41.612Z,100795.41
2023-05-10T09:23:09.007Z,100784.22
2023-05-10T09:25:36.540Z,100787.81
2023-05-10T09:28:07.661Z,100786.72
2023-05-10T09:30:35.780Z,100771.59
2023-05-10T09:33:03.675Z,100787.31
2023-05-10T09:35:33.531Z,100780.50
2023-05-10T09:38:04.887Z,100788.09
2023-05-10T09:40:32.715Z,100787.09
2023-05-10T09:43:04.021Z,100785.50
2023-05-10T09:45:32.465Z,100779.03
2023-05-10T09:48:01.486Z,100769.88
2023-05-10T09:50:29.336Z,100764.41
2023-05-10T09:52:58.815Z,100764.91
2023-05-10T09:55:41.065Z,100758.88
2023-05-10T09:58:09.199Z,100758.38
2023-05-10T10:00:41.810Z,100755.53
2023-05-10T10:03:20.939Z,100755.59
2023-05-10T10:06:18.668Z,100753.88
2023-05-10T10:09:10.497Z,100745.00
2023-05-10T10:11:57.141Z,100754.28
2023-05-10T10:14:44.190Z,100748.47
2023-05-10T10:17:32.457Z,100741.66
2023-05-10T10:20:20.692Z,100744.28
2023-05-10T10:22:49.929Z,100743.66
2023-05-10T10:25:18.760Z,100757.91
2023-05-10T10:27:50.655Z,100747.03
2023-05-10T10:30:40.490Z,100749.47
2023-05-10T10:33:34.865Z,100741.50
2023-05-10T10:36:04.245Z,100744.88
2023-05-10T10:39:01.428Z,100734.34
2023-05-10T10:41:40.470Z,100732.03
2023-05-10T10:44:23.159Z,100726.38
2023-05-10T10:47:12.399Z,100725.00
2023-05-10T10:49:53.393Z,100743.72
2023-05-10T10:52:28.080Z,100724.66
2023-05-10T10:55:01.472Z,100734.66
2023-05-10T10:57:32.039Z,100720.88
2023-05-10T11:00:27.253Z,100709.88
2023-05-10T11:02:57.982Z,100720.28
2023-05-10T11:05:39.783Z,100705.53
2023-05-10T11:08:26.709Z,100722.44
2023-05-10T11:11:00.186Z,100710.19
2023-05-10T11:13:28.763Z,100709.56
2023-05-10T11:15:56.429Z,100704.06
2023-05-10T11:18:28.776Z,100702.75
2023-05-10T11:21:01.418Z,100703.53
2023-05-10T11:23:44.860Z,100695.22
2023-05-10T11:26:12.695Z,100699.38
2023-05-10T11:28:48.143Z,100694.47
2023-05-10T11:31:19.329Z,100685.06
2023-05-10T11:33:47.594Z,100696.66
2023-05-10T11:36:19.117Z,100693.84
2023-05-10T11:38:48.293Z,100690.75
2023-05-10T11:41:18.001Z,100685.34
2023-05-10T11:43:47.661Z,100686.66
2023-05-10T11:46:15.058Z,100684.63
2023-05-10T11:48:43.459Z,100673.84
2023-05-10T11:51:12.110Z,100672.31
2023-05-10T11:53:39.510Z,100675.22
2023-05-10T11:56:11.188Z,100665.56
2023-05-10T11:58:39.932Z,100663.56
2023-05-10T12:01:09.985Z,100672.06
2023-05-10T12:03:38.961Z,100667.91
2023-05-10T12:06:07.998Z,100662.75
2023-05-10T12:08:35.367Z,100644.78
2023-05-10T12:11:10.256Z,100651.78
2023-05-10T12:13:41.815Z,100657.00
2023-05-10T12:16:18.899Z,100654.16
2023-05-10T12:18:49.415Z,100654.00
2023-05-10T12:21:16.791Z,100650.59
2023-05-10T12:23:46.951Z,100649.50
2023-05-10T12:26:15.052Z,100649.13
2023-05-10T12:28:42.495Z,100645.22
2023-05-10T12:31:09.958Z,100636.59
2023-05-10T12:33:47.075Z,100640.50
2023-05-10T12:36:16.329Z,100636.09
2023-05-10T12:38:45.365Z,100631.91
2023-05-10T12:41:17.716Z,100623.94
2023-05-10T12:43:46.003Z,100627.66
2023-05-10T12:46:16.102Z,100639.34
2023-05-10T12:48:45.137Z,100626.84
2023-05-10T12:51:12.823Z,100628.22
2023-05-10T12:53:43.356Z,100626.03
2023-05-10T12:56:12.044Z,100620.03
2023-05-10T12:58:39.628Z,100621.31
2023-05-10T13:01:07.137Z,100608.06
2023-05-10T13:03:34.936Z,100601.41
2023-05-10T13:06:10.015Z,100615.25
2023-05-10T13:08:56.539Z,100608.31
2023-05-10T13:11:33.529Z,100601.13
2023-05-10T13:14:00.784Z,100595.72
2023-05-10T13:16:28.135Z,100595.66
2023-05-10T13:18:55.494Z,100586.44
2023-05-10T13:21:22.947Z,100585.94
2023-05-10T13:23:50.316Z,100585.75
2023-05-10T13:26:17.825Z,100585.69
2023-05-10T13:28:45.199Z,100591.34
2023-05-10T13:31:12.801Z,100584.41
2023-05-10T13:33:40.141Z,100578.16
2023-05-10T13:36:07.809Z,100585.38
2023-05-10T13:38:35.556Z,100581.06
2023-05-10T13:41:02.861Z,100574.16
2023-05-10T13:43:30.481Z,100571.09
2023-05-10T13:45:58.003Z,100573.81
2023-05-10T13:48:25.281Z,100555.94
2023-05-10T13:50:52.646Z,100560.75
2023-05-10T13:53:19.999Z,100558.91
2023-05-10T13:55:47.915Z,100560.47
2023-05-10T13:58:15.265Z,100559.28
2023-05-10T14:00:42.584Z,100551.06
2023-05-10T14:03:09.953Z,100564.47
2023-05-10T14:05:37.460Z,100563.22
2023-05-10T14:08:04.849Z,100551.91
2023-05-10T14:10:32.172Z,100548.50
2023-05-10T14:12:59.458Z,100544.91
2023-05-10T14:15:26.781Z,100551.25
2023-05-10T14:17:54.089Z,100556.63
2023-05-10T14:20:21.558Z,100537.63
2023-05-10T14:22:48.992Z,100553.56
2023-05-10T14:25:16.590Z,100557.44
2023-05-10T14:27:44.032Z,100540.69
2023-05-10T14:30:12.084Z,100538.06
2023-05-10T14:32:39.451Z,100548.06
2023-05-10T14:35:07.711Z,100545.28
2023-05-10T14:37:35.692Z,100542.19
2023-05-10T14:40:02.984Z,100541.84
2023-05-10T14:42:30.305Z,100541.47
2023-05-10T14:44:59.251Z,100549.47
2023-05-10T14:47:26.576Z,100553.75
2023-05-10T14:49:54.272Z,100533.50
2023-05-10T14:52:21.554Z,100546.84
2023-05-10T14:54:48.937Z,100547.38
2023-05-10T14:57:16.235Z,100548.75
2023-05-10T14:59:43.541Z,100552.53
2023-05-10T15:02:11.411Z,100550.94
2023-05-10T15:04:39.400Z,100536.94
2023-05-10T15:07:07.447Z,100545.03
2023-05-10T15:09:34.843Z,100542.81
2023-05-10T15:12:02.191Z,100541.81
2023-05-10T15:14:29.762Z,100536.28
2023-05-10T15:16:57.107Z,100532.19
2023-05-10T15:19:24.363Z,100531.78
2023-05-10T15:21:51.808Z,100526.38
2023-05-10T15:24:19.652Z,100532.81
2023-05-10T15:26:47.008Z,100535.69
2023-05-10T15:29:14.442Z,100529.69
2023-05-10T15:31:41.767Z,100527.13
2023-05-10T15:34:09.117Z,100539.38
2023-05-10T15:36:36.393Z,100530.72
2023-05-10T15:39:03.727Z,100529.31
2023-05-10T15:41:31.005Z,100519.78
2023-05-10T15:43:58.735Z,100532.84
2023-05-10T15:46:26.924Z,100523.94
2023-05-10T15:48:54.372Z,100522.44
2023-05-10T15:51:21.676Z,100524.63
2023-05-10T15:54:05.316Z,100529.16
2023-05-10T15:56:34.610Z,100521.66
2023-05-10T15:59:02.455Z,100517.94
2023-05-10T16:01:33.098Z,100523.44
2023-05-10T16:04:00.870Z,100517.66
2023-05-10T16:06:28.330Z,100515.69
2023-05-10T16:08:55.758Z,100515.56
2023-05-10T16:11:23.129Z,100507.28
2023-05-10T16:13:50.571Z,100513.88
2023-05-10T16:16:17.867Z,100519.47
2023-05-10T16:18:45.309Z,100514.69
2023-05-10T16:21:12.667Z,100522.09
2023-05-10T16:23:40.251Z,100519.38
2023-05-10T16:26:07.597Z,100521.28
2023-05-10T16:28:34.912Z,100502.91
2023-05-10T16:31:02.334Z,100512.72
2023-05-10T16:33:29.702Z,100502.72
2023-05-10T16:35:57.055Z,100504.69
2023-05-10T16:38:24.719Z,100506.91
2023-05-10T16:40:51.969Z,100513.00
2023-05-10T16:43:19.298Z,100510.72
2023-05-10T16:45:46.621Z,100508.31
2023-05-10T16:48:14.066Z,100506.91
2023-05-10T16:50:44.430Z,100504.91
2023-05-10T16:53:11.861Z,100506.41
2023-05-10T16:55:39.190Z,100513.91
2023-05-10T16:58:06.597Z,100517.69
2023-05-10T17:00:34.073Z,100522.88
2023-05-10T17:03:01.651Z,100523.50
2023-05-10T17:05:29.552Z,100523.06
2023-05-10T17:07:56.965Z,100517.97
2023-05-10T17:10:24.367Z,100526.69
2023-05-10T17:12:51.825Z,100531.56
2023-05-10T17:15:19.668Z,100526.38
2023-05-10T17:17:47.669Z,100533.94
2023-05-10T17:20:14.976Z,100535.97
2023-05-10T17:22:42.722Z,100535.63
2023-05-10T17:25:10.244Z,100533.59
2023-05-10T17:27:37.811Z,100539.28
2023-05-10T17:30:06.095Z,100538.66
2023-05-10T17:32:33.873Z,100543.09
2023-05-10T17:35:01.228Z,100535.41
2023-05-10T17:37:29.970Z,100549.66
2023-05-10T17:39:57.358Z,100541.66
2023-05-10T17:42:24.762Z,100550.44
2023-05-10T17:44:52.799Z,100551.19
2023-05-10T17:47:20.106Z,100554.34
2023-05-10T17:49:47.363Z,100552.13
2023-05-10T17:52:14.700Z,100556.91
2023-05-10T17:54:41.927Z,100565.13
2023-05-10T17:57:09.255Z,100563.31
2023-05-10T17:59:36.617Z,100575.94
2023-05-10T18:02:03.900Z,100569.97
2023-05-10T18:04:31.239Z,100577.94
2023-05-10T18:06:59.460Z,100582.44
2023-05-10T18:09:27.905Z,100581.63
2023-05-10T18:11:55.434Z,100582.88
2023-05-10T18:14:35.849Z,100580.94
2023-05-10T18:17:06.913Z,100572.91
2023-05-10T18:19:34.519Z,100579.66
2023-05-10T18:22:01.995Z,100575.41
2023-05-10T18:24:37.648Z,100596.03
2023-05-10T18:27:08.334Z,100586.09
2023-05-10T18:29:35.873Z,100596.06
2023-05-10T18:32:03.689Z,100597.22
2023-05-10T18:34:31.117Z,100599.19
2023-05-10T18:36:59.347Z,100603.41
2023-05-10T18:39:26.808Z,100609.56
2023-05-10T18:41:54.270Z,100610.59
2023-05-10T18:44:21.562Z,100604.13
2023-05-10T18:46:48.958Z,100611.31
2023-05-10T18:49:16.628Z,100610.50
2023-05-10T18:51:44.100Z,100611.88
2023-05-10T18:54:11.515Z,100611.22
2023-05-10T18:56:38.828Z,100606.44
2023-05-10T18:59:06.236Z,100610.41
2023-05-10T19:01:33.663Z,100611.00
2023-05-10T19:04:00.994Z,100608.16
2023-05-10T19:06:28.298Z,100611.91
2023-05-10T19:08:55.754Z,100608.75
2023-05-10T19:11:23.124Z,100610.38
2023-05-10T19:13:50.958Z,100607.34
2023-05-10T19:16:18.389Z,100610.78
2023-05-10T19:18:46.073Z,100614.53
2023-05-10T19:21:13.433Z,100616.50
2023-05-10T19:23:40.801Z,100615.00
2023-05-10T19:26:11.351Z,100613.97
2023-05-10T19:28:38.734Z,100606.31
2023-05-10T19:31:07.862Z,100613.34
2023-05-10T19:33:36.187Z,100611.56
2023-05-10T19:36:03.692Z,100617.69
2023-05-10T19:38:31.854Z,100619.25
2023-05-10T19:40:59.306Z,100614.47
2023-05-10T19:43:28.343Z,100616.75
2023-05-10T19:45:58.995Z,100617.75
2023-05-10T19:48:26.689Z,100618.88
2023-05-10T19:50:59.330Z,100610.88
2023-05-10T19:53:27.556Z,100613.03
2023-05-10T19:55:55.617Z,100608.22
2023-05-10T19:58:23.583Z,100614.53
2023-05-10T20:00:50.971Z,100616.59
2023-05-10T20:03:18.333Z,100609.88
2023-05-10T20:05:45.677Z,100609.13
2023-05-10T20:08:12.883Z,100619.56
2023-05-10T20:10:40.651Z,100609.34
2023-05-10T20:13:08.036Z,100611.28
2023-05-10T20:15:35.393Z,100613.34
2023-05-10T20:18:02.721Z,100611.66
2023-05-10T20:20:30.041Z,100604.16
2023-05-10T20:22:57.306Z,100615.16
2023-05-10T20:25:24.888Z,100608.56
2023-05-10T20:27:52.264Z,100602.06
2023-05-10T20:30:20.083Z,100611.09
2023-05-10T20:32:47.794Z,100604.34
2023-05-10T20:35:15.225Z,100594.47
2023-05-10T20:37:42.551Z,100604.84
2023-05-10T20:40:10.104Z,100604.84
2023-05-10T20:42:37.429Z,100603.34
2023-05-10T20:45:05.334Z,100599.66
2023-05-10T20:47:32.800Z,100609.41
2023-05-10T20:50:00.261Z,100600.94
2023-05-10T20:52:27.852Z,100605.31
2023-05-10T20:54:55.592Z,100615.16
2023-05-10T20:57:22.894Z,100614.13
2023-05-10T20:59:50.357Z,100609.56
2023-05-10T21:02:17.702Z,100614.97
2023-05-10T21:04:45.066Z,100610.91
2023-05-10T21:07:12.378Z,100612.56
2023-05-10T21:09:39.653Z,100611.75
2023-05-10T21:12:07.929Z,100613.56
2023-05-10T21:14:35.227Z,100607.25
2023-05-10T21:17:02.529Z,100605.72
2023-05-10T21:19:29.940Z,100611.63
2023-05-10T21:21:57.348Z,100606.28
2023-05-10T21:24:24.653Z,100607.91
2023-05-10T21:26:51.934Z,100617.56
2023-05-10T21:29:19.239Z,100604.91
2023-05-10T21:31:46.608Z,100605.44
2023-05-10T21:34:13.956Z,100606.06
2023-05-10T21:36:41.304Z,100602.56
2023-05-10T21:39:08.552Z,100596.31
2023-05-10T21:41:36.541Z,100606.59
2023-05-10T21:44:03.869Z,100609.28
2023-05-10T21:46:31.260Z,100610.16
2023-05-10T21:49:02.182Z,100613.00
2023-05-10T21:51:29.573Z,100609.25
2023-05-10T21:53:57.057Z,100607.41
2023-05-10T21:56:24.521Z,100610.63
2023-05-10T21:58:52.131Z,100621.19
2023-05-10T22:01:19.459Z,100611.50
2023-05-10T22:03:47.199Z,100616.34
2023-05-10T22:06:14.515Z,100615.06
2023-05-10T22:08:41.815Z,100613.47
2023-05-10T22:11:09.276Z,100610.81
2023-05-10T22:13:36.568Z,100611.34
2023-05-10T22:16:04.006Z,100615.91
2023-05-10T22:18:31.394Z,100616.19
2023-05-10T22:20:58.810Z,100608.69
2023-05-10T22:23:26.136Z,100610.25
2023-05-10T22:25:53.469Z,100603.31
2023-05-10T22:28:20.848Z,100599.50
2023-05-10T22:30:49.225Z,100609.22
2023-05-10T22:33:16.998Z,100600.31
2023-05-10T22:35:44.396Z,100605.44
2023-05-10T22:38:11.687Z,100599.31
2023-05-10T22:40:39.454Z,100597.34
2023-05-10T22:43:06.894Z,100600.09
2023-05-10T22:45:34.245Z,100604.97
2023-05-10T22:48:05.982Z,100601.25
2023-05-10T22:50:33.624Z,100603.09
2023-05-10T22:53:00.955Z,100603.44
2023-05-10T22:55:28.319Z,100602.34
2023-05-10T22:57:56.104Z,100592.72
2023-05-10T23:00:24.608Z,100601.25
2023-05-10T23:02:51.991Z,100598.09
2023-05-10T23:05:19.291Z,100595.91
2023-05-10T23:07:46.606Z,100595.41
2023-05-10T23:10:14.204Z,100601.56
2023-05-10T23:12:41.493Z,100601.25
2023-05-10T23:15:09.265Z,100594.88
2023-05-10T23:17:36.663Z,100598.66
2023-05-10T23:20:06.393Z,100591.13
2023-05-10T23:22:33.800Z,100595.69
2023-05-10T23:25:01.268Z,100590.06
2023-05-10T23:27:29.758Z,100591.16
2023-05-10T23:29:57.695Z,100589.81
2023-05-10T23:32:25.164Z,100597.34
2023-05-10T23:34:52.753Z,100592.25
2023-05-10T23:37:20.089Z,100598.13
2023-05-10T23:39:47.401Z,100590.09
2023-05-10T23:42:14.642Z,100601.84
2023-05-10T23:44:41.999Z,100591.41
2023-05-10T23:47:09.392Z,100592.22
2023-05-10T23:49:36.782Z,100593.31
2023-05-10T23:52:04.442Z,100595.97
2023-05-10T23:54:31.730Z,100589.03
2023-05-10T23:56:58.978Z,100594.41
2023-05-10T23:59:26.502Z,100599.75
